Time;durP1;ratioP1;P1;durP2;ratioP2;P2;SDS_P1;SDS_P2;PMS_P1;PMS_P2;Temp;Humidity;BMP_temperature;BMP_pressure;BME280_temperature;BME280_humidity;BME280_pressure;Samples;Min_cycle;Max_cycle;Signal;HPM_P1;HPM_P2
2021/08/19 00:00:57;;;;;;;;;;;;;;;15.96;74.77;96581.22;5094040;28;19952;-77
2021/08/19 00:03:23;;;;;;;;;;;;;;;15.96;75.31;96570.66;5095025;28;19962;-78
2021/08/19 00:05:49;;;;;;;;;;;;;;;15.96;75.34;96573.31;5094570;28;19990;-77
2021/08/19 00:08:14;;;;;;;;;;;;;;;15.98;75.21;96576.50;5094783;28;19972;-77
2021/08/19 00:10:40;;;;;;;;;;;;;;;15.98;75.23;96570.38;5094848;28;19962;-77
2021/08/19 00:13:06;;;;;;;;;;;;;;;15.98;75.30;96570.38;5094891;28;20044;-77
2021/08/19 00:15:32;;;;;;;;;;;;;;;15.97;75.41;96572.25;5094912;28;19963;-77
2021/08/19 00:17:58;;;;;;;;;;;;;;;15.97;75.34;96568.81;5094518;28;20033;-78
2021/08/19 00:20:24;;;;;;;;;;;;;;;15.96;75.00;96565.38;5094310;28;20001;-77
2021/08/19 00:22:50;;;;;;;;;;;;;;;15.95;75.56;96568.25;5095298;28;19987;-77
2021/08/19 00:25:16;;;;;;;;;;;;;;;15.93;75.25;96565.06;5094793;28;19975;-77
2021/08/19 00:27:42;;;;;;;;;;;;;;;15.94;75.31;96564.03;5094444;28;20430;-77
2021/08/19 00:30:08;;;;;;;;;;;;;;;15.94;75.32;96562.16;5094384;28;19966;-77
2021/08/19 00:32:34;;;;;;;;;;;;;;;15.94;75.58;96569.31;5094491;28;19953;-77
2021/08/19 00:35:00;;;;;;;;;;;;;;;15.94;75.17;96578.03;5094162;28;19952;-77
2021/08/19 00:37:26;;;;;;;;;;;;;;;15.95;75.74;96569.03;5093482;28;20388;-77
2021/08/19 00:39:52;;;;;;;;;;;;;;;15.94;75.13;96567.47;5093838;28;20032;-77
2021/08/19 00:42:18;;;;;;;;;;;;;;;15.94;74.94;96570.09;5094570;28;19956;-77
2021/08/19 00:44:47;;;;;;;;;;;;;;;15.95;75.26;96562.97;5094206;28;19958;-77
2021/08/19 00:47:13;;;;;;;;;;;;;;;15.94;75.22;96562.16;5094173;28;20463;-77
2021/08/19 00:49:42;;;;;;;;;;;;;;;15.93;75.12;96555.28;5094456;28;19967;-77
2021/08/19 00:52:09;;;;;;;;;;;;;;;15.94;75.54;96553.44;5094556;28;19955;-77
2021/08/19 00:54:35;;;;;;;;;;;;;;;15.93;75.35;96557.91;5094113;28;19962;-77
2021/08/19 00:57:02;;;;;;;;;;;;;;;15.92;75.30;96552.91;5094406;28;20406;-77
2021/08/19 00:59:38;;;;;;;;;;;;;;;15.92;75.09;96558.97;5093615;28;19958;-77
2021/08/19 01:02:05;;;;;;;;;;;;;;;15.90;75.05;96555.78;5094564;28;19950;-77
2021/08/19 01:04:32;;;;;;;;;;;;;;;15.90;75.27;96558.44;5093992;28;19952;-77
2021/08/19 01:07:01;;;;;;;;;;;;;;;15.89;75.03;96556.03;5094237;28;19961;-78
2021/08/19 01:09:27;;;;;;;;;;;;;;;15.88;75.27;96555.22;5094180;28;19971;-77
2021/08/19 01:11:53;;;;;;;;;;;;;;;15.89;75.24;96556.03;5093424;28;20337;-77
2021/08/19 01:14:19;;;;;;;;;;;;;;;15.87;75.16;96560.75;5093338;28;19952;-78
2021/08/19 01:16:45;;;;;;;;;;;;;;;15.87;75.55;96547.53;5094036;28;19959;-77
2021/08/19 01:19:21;;;;;;;;;;;;;;;15.84;75.48;96551.47;5093776;28;19952;-77
2021/08/19 01:21:48;;;;;;;;;;;;;;;15.81;75.53;96554.59;5093055;28;19987;-77
2021/08/19 01:24:14;;;;;;;;;;;;;;;15.80;75.96;96550.38;5093899;28;19949;-77
2021/08/19 01:26:40;;;;;;;;;;;;;;;15.76;75.24;96562.50;5093734;28;20469;-77
2021/08/19 01:29:06;;;;;;;;;;;;;;;15.72;75.73;96559.53;5093680;28;20335;-77
2021/08/19 01:31:33;;;;;;;;;;;;;;;15.67;75.73;96556.81;5092415;28;20001;-77
2021/08/19 01:33:59;;;;;;;;;;;;;;;15.66;75.90;96557.06;5092702;28;19951;-77
2021/08/19 01:36:25;;;;;;;;;;;;;;;15.66;75.88;96559.72;5093959;28;19961;-77
2021/08/19 01:38:51;;;;;;;;;;;;;;;15.66;76.21;96555.22;5093705;28;19960;-77
2021/08/19 01:41:18;;;;;;;;;;;;;;;15.68;76.25;96560.25;5093568;28;20432;-77
2021/08/19 01:43:46;;;;;;;;;;;;;;;15.63;76.20;96564.44;5093547;28;19969;-77
2021/08/19 01:46:12;;;;;;;;;;;;;;;15.64;76.15;96554.66;5093783;28;19946;-77
2021/08/19 01:48:41;;;;;;;;;;;;;;;15.64;75.98;96554.66;5092950;28;19976;-77
2021/08/19 01:51:07;;;;;;;;;;;;;;;15.64;76.10;96554.66;5092775;28;19982;-77
2021/08/19 01:53:34;;;;;;;;;;;;;;;15.65;76.46;96558.91;5093493;28;19972;-77
2021/08/19 01:56:00;;;;;;;;;;;;;;;15.64;76.21;96559.94;5093212;28;19954;-77
2021/08/19 01:58:26;;;;;;;;;;;;;;;15.64;76.58;96549.38;5094022;28;19957;-77
2021/08/19 02:00:53;;;;;;;;;;;;;;;15.62;76.47;96554.09;5093513;28;19955;-77
2021/08/19 02:03:19;;;;;;;;;;;;;;;15.64;76.23;96552.00;5093475;28;19947;-77
2021/08/19 02:05:51;;;;;;;;;;;;;;;15.62;76.55;96549.63;5091828;28;20021;-77
2021/08/19 02:08:17;;;;;;;;;;;;;;;15.61;76.94;96550.66;5092396;28;19962;-77
2021/08/19 02:10:43;;;;;;;;;;;;;;;15.56;76.57;96549.81;5094337;28;20435;-77
2021/08/19 02:13:10;;;;;;;;;;;;;;;15.56;76.97;96552.44;5097280;28;19963;-77
2021/08/19 02:15:36;;;;;;;;;;;;;;;15.58;76.99;96547.72;5097135;28;19968;-78
2021/08/19 02:18:02;;;;;;;;;;;;;;;15.59;76.81;96554.63;5096716;28;20044;-77
2021/08/19 02:20:28;;;;;;;;;;;;;;;15.62;77.03;96559.41;5097144;28;19965;-77
2021/08/19 02:23:04;;;;;;;;;;;;;;;15.63;76.95;96553.06;5096933;28;19978;-78
2021/08/19 02:25:30;;;;;;;;;;;;;;;15.62;76.85;96544.34;5097194;28;19959;-77
2021/08/19 02:27:56;;;;;;;;;;;;;;;15.62;77.12;96544.34;5096959;28;20014;-77
2021/08/19 02:30:22;;;;;;;;;;;;;;;15.63;77.30;96551.22;5097293;28;19958;-77
2021/08/19 02:32:53;;;;;;;;;;;;;;;15.64;77.25;96541.44;5096409;28;20400;-77
2021/08/19 02:35:19;;;;;;;;;;;;;;;15.63;77.32;96543.28;5082995;28;19951;-77
2021/08/19 02:37:46;;;;;;;;;;;;;;;15.62;77.44;96533.78;5096041;28;19966;-77
2021/08/19 02:40:12;;;;;;;;;;;;;;;15.63;77.59;96537.22;5096882;28;19945;-77
2021/08/19 02:42:38;;;;;;;;;;;;;;;15.62;77.23;96536.41;5097281;28;20023;-77
2021/08/19 02:45:04;;;;;;;;;;;;;;;15.58;77.21;96535.31;5096656;28;20062;-77
2021/08/19 02:47:30;;;;;;;;;;;;;;;15.55;77.28;96525.22;5096517;28;19964;-78
2021/08/19 02:49:56;;;;;;;;;;;;;;;15.53;77.54;96526.53;5096588;28;19979;-77
2021/08/19 02:52:23;;;;;;;;;;;;;;;15.52;77.84;96519.66;5096096;28;19958;-77
2021/08/19 02:54:50;;;;;;;;;;;;;;;15.52;77.96;96524.94;5096347;28;19965;-77
2021/08/19 02:57:16;;;;;;;;;;;;;;;15.52;77.94;96522.28;5096670;28;20420;-78
2021/08/19 02:59:42;;;;;;;;;;;;;;;15.52;78.10;96517.81;5082135;28;19964;-77
2021/08/19 03:02:08;;;;;;;;;;;;;;;15.51;78.05;96518.03;5096356;28;20428;-77
2021/08/19 03:04:34;;;;;;;;;;;;;;;15.52;78.18;96519.66;5095252;28;20435;-77
2021/08/19 03:06:59;;;;;;;;;;;;;;;15.53;78.32;96515.94;5096030;28;19959;-77
2021/08/19 03:09:25;;;;;;;;;;;;;;;15.53;78.57;96518.59;5095249;28;19977;-77
2021/08/19 03:11:51;;;;;;;;;;;;;;;15.52;78.51;96517.00;5096463;28;19954;-77
2021/08/19 03:14:18;;;;;;;;;;;;;;;15.51;78.71;96521.47;5096003;28;19957;-77
2021/08/19 03:16:43;;;;;;;;;;;;;;;15.50;78.48;96514.59;5095862;28;19959;-77
2021/08/19 03:19:09;;;;;;;;;;;;;;;15.51;78.69;96516.19;5095736;28;19960;-77
2021/08/19 03:21:37;;;;;;;;;;;;;;;15.49;78.32;96514.84;5095426;28;20326;-77
2021/08/19 03:24:03;;;;;;;;;;;;;;;15.49;78.45;96514.84;5096045;28;19967;-77
2021/08/19 03:26:32;;;;;;;;;;;;;;;15.49;78.36;96512.19;5096284;28;20352;-77
2021/08/19 03:28:58;;;;;;;;;;;;;;;15.50;78.17;96519.88;5096054;28;19974;-78
2021/08/19 03:31:25;;;;;;;;;;;;;;;15.51;78.55;96515.41;5080990;28;19961;-77
2021/08/19 03:33:51;;;;;;;;;;;;;;;15.51;78.18;96518.84;5095457;28;20322;-77
2021/08/19 03:36:17;;;;;;;;;;;;;;;15.51;78.39;96510.09;5095773;28;19982;-77
2021/08/19 03:38:43;;;;;;;;;;;;;;;15.50;78.36;96511.97;5095742;28;19960;-77
2021/08/19 03:41:12;;;;;;;;;;;;;;;15.50;78.50;96519.09;5095586;28;19962;-77
2021/08/19 03:43:38;;;;;;;;;;;;;;;15.51;78.91;96520.69;5095421;28;19959;-77
2021/08/19 03:46:04;;;;;;;;;;;;;;;15.49;78.67;96518.28;5094836;28;20001;-77
2021/08/19 03:48:31;;;;;;;;;;;;;;;15.41;78.67;96519.53;5095207;28;19963;-77
2021/08/19 03:50:57;;;;;;;;;;;;;;;15.33;78.91;96516.50;5095467;28;19970;-77
2021/08/19 03:53:23;;;;;;;;;;;;;;;15.28;79.32;96519.88;5095187;28;19967;-77
2021/08/19 03:55:49;;;;;;;;;;;;;;;15.27;80.36;96518.31;5094402;28;19962;-78
2021/08/19 03:58:15;;;;;;;;;;;;;;;15.22;79.52;96515.56;5095435;28;19955;-77
2021/08/19 04:00:41;;;;;;;;;;;;;;;15.24;79.88;96518.78;5095236;28;20049;-77
2021/08/19 04:03:07;;;;;;;;;;;;;;;15.27;79.90;96528.88;5094175;28;19978;-77
2021/08/19 04:05:33;;;;;;;;;;;;;;;15.26;79.89;96519.31;5094221;28;20483;-77
2021/08/19 04:07:59;;;;;;;;;;;;;;;15.26;79.73;96521.19;5094762;28;19960;-77
2021/08/19 04:10:24;;;;;;;;;;;;;;;15.29;80.17;96523.34;5094992;28;20009;-77
2021/08/19 04:12:50;;;;;;;;;;;;;;;15.29;80.28;96520.72;5095175;28;19955;-77
2021/08/19 04:15:16;;;;;;;;;;;;;;;15.29;80.41;96526.00;5093879;28;20057;-78
2021/08/19 04:17:42;;;;;;;;;;;;;;;15.28;80.80;96525.16;5094851;28;19962;-77
2021/08/19 04:20:08;;;;;;;;;;;;;;;15.30;80.52;96519.66;5091944;28;19966;-78
2021/08/19 04:22:34;;;;;;;;;;;;;;;15.30;80.52;96519.66;5095165;28;19984;-77
2021/08/19 04:25:00;;;;;;;;;;;;;;;15.31;80.31;96524.69;5094678;28;20053;-77
2021/08/19 04:27:26;;;;;;;;;;;;;;;15.33;81.18;96519.13;5094878;28;19967;-77
2021/08/19 04:29:52;;;;;;;;;;;;;;;15.34;80.61;96523.41;5094023;28;19976;-77
2021/08/19 04:32:18;;;;;;;;;;;;;;;15.36;80.75;96521.31;5094500;28;20398;-77
2021/08/19 04:34:44;;;;;;;;;;;;;;;15.35;80.93;96512.59;5093775;28;20056;-77
2021/08/19 04:37:10;;;;;;;;;;;;;;;15.34;80.71;96518.09;5094474;28;19958;-77
2021/08/19 04:39:36;;;;;;;;;;;;;;;15.34;81.71;96524.19;5094340;28;20055;-77
2021/08/19 04:42:02;;;;;;;;;;;;;;;15.36;80.99;96513.38;5092804;28;19964;-77
2021/08/19 04:44:28;;;;;;;;;;;;;;;15.37;81.03;96518.44;5094222;28;20431;-77
2021/08/19 04:46:53;;;;;;;;;;;;;;;15.37;81.64;96521.06;5094358;28;19961;-77
2021/08/19 04:49:19;;;;;;;;;;;;;;;15.37;81.42;96517.59;5094199;28;19965;-77
2021/08/19 04:51:45;;;;;;;;;;;;;;;15.37;80.93;96515.78;5094338;28;20048;-77
2021/08/19 04:54:11;;;;;;;;;;;;;;;15.38;81.09;96525.28;5093556;28;19961;-77
2021/08/19 04:56:37;;;;;;;;;;;;;;;15.39;81.06;96515.50;5094190;28;19994;-77
2021/08/19 04:59:04;;;;;;;;;;;;;;;15.37;80.81;96526.34;5093993;28;19964;-77
2021/08/19 05:01:30;;;;;;;;;;;;;;;15.40;81.04;96531.13;5093954;28;19957;-77
2021/08/19 05:03:59;;;;;;;;;;;;;;;15.40;81.15;96525.84;5093514;28;19968;-77
2021/08/19 05:06:28;;;;;;;;;;;;;;;15.40;81.72;96533.78;5093897;28;20309;-77
2021/08/19 05:08:54;;;;;;;;;;;;;;;15.41;81.30;96534.56;5092471;28;19965;-77
2021/08/19 05:11:23;;;;;;;;;;;;;;;15.41;81.28;96524.00;5093736;28;19957;-77
2021/08/19 05:13:49;;;;;;;;;;;;;;;15.39;81.48;96532.19;5093824;28;20329;-77
2021/08/19 05:16:16;;;;;;;;;;;;;;;15.39;81.51;96526.09;5093182;28;19956;-77
2021/08/19 05:18:43;;;;;;;;;;;;;;;15.38;82.54;96533.22;5094242;28;19959;-77
2021/08/19 05:21:12;;;;;;;;;;;;;;;15.31;81.73;96524.69;5093424;28;19984;-77
2021/08/19 05:23:39;;;;;;;;;;;;;;;15.31;81.77;96523.91;5092946;28;19955;-77
2021/08/19 05:26:05;;;;;;;;;;;;;;;15.34;81.91;96528.69;5093926;28;19954;-77
2021/08/19 05:28:31;;;;;;;;;;;;;;;15.36;82.12;96532.66;5093613;28;20426;-78
2021/08/19 05:30:57;;;;;;;;;;;;;;;15.39;81.93;96526.91;5093819;28;20320;-77
2021/08/19 05:33:23;;;;;;;;;;;;;;;15.45;81.96;96529.59;5093902;28;19960;-76
2021/08/19 05:35:49;;;;;;;;;;;;;;;15.46;81.76;96525.91;5093120;28;20002;-77
2021/08/19 05:38:15;;;;;;;;;;;;;;;15.46;82.00;96531.22;5092553;28;19961;-77
2021/08/19 05:40:41;;;;;;;;;;;;;;;15.48;81.82;96529.13;5093010;28;19959;-77
2021/08/19 05:43:06;;;;;;;;;;;;;;;15.50;81.77;96532.31;5093386;28;19958;-77
2021/08/19 05:45:33;;;;;;;;;;;;;;;15.52;81.93;96536.31;5095753;28;20044;-77
2021/08/19 05:48:01;;;;;;;;;;;;;;;15.53;82.01;96534.44;5096712;28;20328;-77
2021/08/19 05:50:27;;;;;;;;;;;;;;;15.53;81.96;96539.75;5097549;28;19987;-78
2021/08/19 05:52:53;;;;;;;;;;;;;;;15.53;81.55;96537.09;5097822;28;20403;-77
2021/08/19 05:55:19;;;;;;;;;;;;;;;15.52;81.95;96533.66;5097733;28;19961;-77
2021/08/19 05:57:50;;;;;;;;;;;;;;;15.50;82.25;96533.09;5097375;28;20003;-78
2021/08/19 06:00:20;;;;;;;;;;;;;;;15.50;82.23;96535.75;5087297;28;19952;-77
2021/08/19 06:02:46;;;;;;;;;;;;;;;15.52;82.14;96533.66;5097786;28;20008;-77
2021/08/19 06:05:12;;;;;;;;;;;;;;;15.54;81.98;96528.94;5097429;28;19953;-77
2021/08/19 06:07:38;;;;;;;;;;;;;;;15.54;82.07;96536.03;5097238;28;19961;-77
2021/08/19 06:10:04;;;;;;;;;;;;;;;15.56;82.51;96540.06;5096957;28;20326;-77
2021/08/19 06:12:30;;;;;;;;;;;;;;;15.55;82.29;96535.78;5097448;28;19951;-77
2021/08/19 06:14:56;;;;;;;;;;;;;;;15.56;82.24;96531.31;5097523;28;19962;-77
2021/08/19 06:17:22;;;;;;;;;;;;;;;15.58;82.07;96529.22;5097112;28;20362;-77
2021/08/19 06:19:48;;;;;;;;;;;;;;;15.61;82.02;96528.72;5097279;28;20449;-77
2021/08/19 06:22:14;;;;;;;;;;;;;;;15.64;82.17;96536.16;5096642;28;19982;-77
2021/08/19 06:24:40;;;;;;;;;;;;;;;15.65;81.68;96537.75;5096138;28;19961;-77
2021/08/19 06:27:06;;;;;;;;;;;;;;;15.65;81.93;96539.63;5095901;28;20072;-77
2021/08/19 06:29:32;;;;;;;;;;;;;;;15.68;82.01;96552.31;5097082;28;19971;-77
2021/08/19 06:31:57;;;;;;;;;;;;;;;15.71;81.56;96549.19;5096819;28;20343;-77
2021/08/19 06:34:23;;;;;;;;;;;;;;;15.77;81.35;96554.31;5096020;28;20043;-77
2021/08/19 06:36:49;;;;;;;;;;;;;;;15.83;81.26;96541.94;5096539;28;19955;-77
2021/08/19 06:39:15;;;;;;;;;;;;;;;15.88;81.16;96543.84;5096858;28;19968;-77
2021/08/19 06:41:41;;;;;;;;;;;;;;;15.93;80.60;96541.25;5096569;28;19953;-77
2021/08/19 06:44:07;;;;;;;;;;;;;;;15.96;80.63;96551.34;5096703;28;19963;-77
2021/08/19 06:46:33;;;;;;;;;;;;;;;16.01;80.06;96546.09;5096605;28;19962;-77
2021/08/19 06:48:59;;;;;;;;;;;;;;;16.08;80.21;96546.69;5096518;28;19967;-77
2021/08/19 06:51:25;;;;;;;;;;;;;;;16.16;79.58;96548.09;5096844;28;20472;-77
2021/08/19 06:53:51;;;;;;;;;;;;;;;16.20;79.62;96546.53;5096674;28;19964;-77
2021/08/19 06:56:17;;;;;;;;;;;;;;;16.24;78.77;96543.13;5095957;28;20331;-77
2021/08/19 06:58:43;;;;;;;;;;;;;;;16.31;79.75;96555.34;5096358;28;19965;-77
2021/08/19 07:01:08;;;;;;;;;;;;;;;16.35;78.62;96557.25;5096888;28;19966;-77
2021/08/19 07:03:34;;;;;;;;;;;;;;;16.38;78.10;96545.38;5095634;28;20337;-77
2021/08/19 07:06:00;;;;;;;;;;;;;;;16.41;78.93;96550.16;5096202;28;20004;-77
2021/08/19 07:08:27;;;;;;;;;;;;;;;16.44;78.46;96550.47;5096110;28;20444;-77
2021/08/19 07:10:53;;;;;;;;;;;;;;;16.49;78.54;96548.91;5096227;28;19980;-77
2021/08/19 07:13:19;;;;;;;;;;;;;;;16.56;77.68;96549.47;5095956;28;19958;-78
2021/08/19 07:15:45;;;;;;;;;;;;;;;16.66;77.90;96548.75;5095099;28;20459;-77
2021/08/19 07:18:12;;;;;;;;;;;;;;;16.72;77.51;96545.91;5096096;28;20456;-77
2021/08/19 07:20:38;;;;;;;;;;;;;;;16.81;77.34;96544.38;5081315;28;19953;-77
2021/08/19 07:23:04;;;;;;;;;;;;;;;16.91;76.79;96545.53;5095094;28;19971;-77
2021/08/19 07:25:30;;;;;;;;;;;;;;;16.94;76.56;96551.09;5095460;28;19956;-77
2021/08/19 07:27:56;;;;;;;;;;;;;;;16.98;75.34;96546.09;5096020;28;19955;-77
2021/08/19 07:30:22;;;;;;;;;;;;;;;17.06;74.97;96547.47;5096086;28;19983;-77
2021/08/19 07:32:48;;;;;;;;;;;;;;;17.14;76.11;96545.13;5077055;28;20050;-77
2021/08/19 07:35:14;;;;;;;;;;;;;;;17.20;74.79;96544.09;5094683;28;19973;-77
2021/08/19 07:37:44;;;;;;;;;;;;;;;17.27;74.55;96543.06;5095010;28;19994;-77
2021/08/19 07:40:10;;;;;;;;;;;;;;;17.31;74.61;96549.44;5095582;28;19973;-77
2021/08/19 07:42:36;;;;;;;;;;;;;;;17.38;73.77;96544.69;5094598;28;19970;-77
2021/08/19 07:45:02;;;;;;;;;;;;;;;17.43;73.68;96536.78;5095086;28;19961;-77
2021/08/19 07:47:28;;;;;;;;;;;;;;;17.52;72.89;96540.50;5094656;28;20375;-77
2021/08/19 07:49:54;;;;;;;;;;;;;;;17.60;73.30;96542.66;5095190;28;19974;-77
2021/08/19 07:52:19;;;;;;;;;;;;;;;17.63;71.70;96536.03;5095718;28;19959;-77
2021/08/19 07:54:45;;;;;;;;;;;;;;;17.68;71.91;96537.91;5095275;28;20057;-77
2021/08/19 07:57:11;;;;;;;;;;;;;;;17.74;71.66;96539.50;5095448;28;20048;-77
2021/08/19 07:59:37;;;;;;;;;;;;;;;17.83;72.08;96541.44;5095121;28;20056;-77
2021/08/19 08:02:03;;;;;;;;;;;;;;;17.91;69.70;96541.97;5095157;28;20341;-77
2021/08/19 08:04:29;;;;;;;;;;;;;;;18.00;72.06;96546.53;5094879;28;19959;-77
2021/08/19 08:06:55;;;;;;;;;;;;;;;18.08;69.14;96537.25;5095093;28;20155;-77
2021/08/19 08:09:21;;;;;;;;;;;;;;;18.10;69.86;96540.44;5095151;28;20356;-77
2021/08/19 08:11:47;;;;;;;;;;;;;;;18.12;69.44;96542.81;5094950;28;20020;-77
2021/08/19 08:14:13;;;;;;;;;;;;;;;18.16;69.75;96542.00;5094188;28;19963;-77
2021/08/19 08:16:38;;;;;;;;;;;;;;;18.24;70.48;96541.50;5095263;28;19960;-77
2021/08/19 08:19:04;;;;;;;;;;;;;;;18.37;68.61;96540.19;5094845;28;19965;-77
2021/08/19 08:21:30;;;;;;;;;;;;;;;18.51;67.34;96537.78;5094582;28;20069;-77
2021/08/19 08:23:56;;;;;;;;;;;;;;;18.66;68.12;96544.97;5094720;28;19953;-77
2021/08/19 08:26:22;;;;;;;;;;;;;;;18.79;68.94;96546.28;5094318;28;19964;-77
2021/08/19 08:28:50;;;;;;;;;;;;;;;18.89;66.91;96540.97;5094696;28;19961;-77
2021/08/19 08:31:17;;;;;;;;;;;;;;;18.95;66.53;96547.88;5094857;28;20439;-77
2021/08/19 08:33:43;;;;;;;;;;;;;;;18.99;67.39;96546.28;5094735;28;19964;-77
2021/08/19 08:36:09;;;;;;;;;;;;;;;19.06;67.20;96548.66;5093424;28;19954;-77
2021/08/19 08:38:34;;;;;;;;;;;;;;;19.17;66.83;96552.06;5094962;28;20004;-77
2021/08/19 08:41:00;;;;;;;;;;;;;;;19.26;64.63;96537.16;5094625;28;19965;-77
2021/08/19 08:43:27;;;;;;;;;;;;;;;19.34;64.15;96533.97;5093227;28;19963;-77
2021/08/19 08:45:54;;;;;;;;;;;;;;;19.45;67.22;96553.31;5093630;28;19968;-77
2021/08/19 08:48:24;;;;;;;;;;;;;;;19.53;64.29;96536.81;5094282;28;19965;-77
2021/08/19 08:50:52;;;;;;;;;;;;;;;19.61;65.65;96552.19;5094606;28;19978;-77
2021/08/19 08:53:19;;;;;;;;;;;;;;;19.67;65.31;96551.13;5094177;28;19965;-76
2021/08/19 08:55:45;;;;;;;;;;;;;;;19.66;63.49;96540.72;5094188;28;19957;-76
2021/08/19 08:58:12;;;;;;;;;;;;;;;19.60;62.87;96537.28;5093235;28;19956;-77
2021/08/19 09:00:41;;;;;;;;;;;;;;;19.55;64.19;96550.63;5094309;28;19964;-77
2021/08/19 09:03:08;;;;;;;;;;;;;;;19.55;63.59;96545.31;5093867;28;19955;-76
2021/08/19 09:05:39;;;;;;;;;;;;;;;19.57;63.28;96545.00;5094052;28;19959;-76
2021/08/19 09:08:04;;;;;;;;;;;;;;;19.58;62.46;96535.97;5094290;28;19963;-77
2021/08/19 09:10:31;;;;;;;;;;;;;;;19.63;65.67;96562.56;5094107;28;19981;-76
2021/08/19 09:13:08;;;;;;;;;;;;;;;19.68;64.63;96554.56;5093902;28;19960;-76
2021/08/19 09:15:33;;;;;;;;;;;;;;;19.72;64.55;96557.47;5094004;28;20323;-76
2021/08/19 09:18:01;;;;;;;;;;;;;;;19.71;63.45;96543.38;5094165;28;19959;-76
2021/08/19 09:20:29;;;;;;;;;;;;;;;19.72;64.94;96560.97;5093319;28;20382;-76
2021/08/19 09:23:14;;;;;;;;;;;;;;;19.63;63.05;96542.09;5093962;28;20476;-77
2021/08/19 09:25:41;;;;;;;;;;;;;;;19.58;64.92;96562.59;5093823;28;19968;-76
2021/08/19 09:28:07;;;;;;;;;;;;;;;19.53;64.47;96551.94;5093504;28;19953;-76
2021/08/19 09:30:34;;;;;;;;;;;;;;;19.45;64.02;96546.13;5093817;28;19965;-76
2021/08/19 09:33:03;;;;;;;;;;;;;;;19.40;65.26;96550.66;5092559;28;19965;-77
2021/08/19 09:35:30;;;;;;;;;;;;;;;19.35;65.13;96548.03;5093749;28;19957;-76
2021/08/19 09:37:56;;;;;;;;;;;;;;;19.35;65.88;96551.50;5093175;28;19965;-76
2021/08/19 09:40:23;;;;;;;;;;;;;;;19.36;65.79;96546.97;5093245;28;19953;-76
2021/08/19 09:42:49;;;;;;;;;;;;;;;19.34;65.12;96543.78;5093524;28;20400;-77
2021/08/19 09:45:22;;;;;;;;;;;;;;;19.24;64.97;96545.41;5093659;28;19961;-76
2021/08/19 09:47:50;;;;;;;;;;;;;;;19.19;65.51;96544.63;5093204;28;19959;-77
2021/08/19 09:50:18;;;;;;;;;;;;;;;19.12;63.08;96536.16;5092733;28;20441;-76
2021/08/19 09:52:45;;;;;;;;;;;;;;;19.09;65.38;96550.78;5093580;28;19971;-77
2021/08/19 09:55:30;;;;;;;;;;;;;;;19.08;65.52;96551.03;5093608;28;19960;-77
2021/08/19 09:58:00;;;;;;;;;;;;;;;19.04;65.37;96554.22;5093422;28;19955;-76
2021/08/19 10:00:39;;;;;;;;;;;;;;;19.06;65.67;96546.00;5092553;28;19962;-76
2021/08/19 10:03:11;;;;;;;;;;;;;;;19.09;66.00;96547.31;5092649;28;19974;-76
2021/08/19 10:05:40;;;;;;;;;;;;;;;19.13;65.89;96551.00;5092379;28;19968;-77
2021/08/19 10:08:08;;;;;;;;;;;;;;;19.16;65.30;96543.31;5093258;28;19963;-76
2021/08/19 10:10:34;;;;;;;;;;;;;;;19.20;65.20;96547.00;5093938;28;19973;-76
2021/08/19 10:13:01;;;;;;;;;;;;;;;19.24;66.19;96542.75;5092903;28;19967;-76
2021/08/19 10:15:28;;;;;;;;;;;;;;;19.27;65.54;96549.38;5091640;28;19970;-76
2021/08/19 10:17:58;;;;;;;;;;;;;;;19.28;64.75;96532.38;5092302;28;19955;-77
2021/08/19 10:20:40;;;;;;;;;;;;;;;19.32;64.91;96535.28;5093127;28;19957;-77
2021/08/19 10:23:07;;;;;;;;;;;;;;;19.40;65.75;96537.38;5093186;28;19971;-77
2021/08/19 10:25:33;;;;;;;;;;;;;;;19.46;65.00;96529.13;5093472;28;20435;-76
2021/08/19 10:28:13;;;;;;;;;;;;;;;19.52;65.93;96543.19;5093165;28;19961;-77
2021/08/19 10:30:46;;;;;;;;;;;;;;;19.57;65.76;96540.50;5092581;28;19967;-77
2021/08/19 10:33:32;;;;;;;;;;;;;;;19.62;64.47;96524.50;5084910;28;20432;-76
2021/08/19 10:35:57;;;;;;;;;;;;;;;19.64;63.79;96525.03;5096599;28;20320;-77
2021/08/19 10:38:25;;;;;;;;;;;;;;;19.63;62.87;96522.63;5096644;28;19992;-76
2021/08/19 10:40:51;;;;;;;;;;;;;;;19.57;63.81;96529.88;5096110;28;19963;-77
2021/08/19 10:43:32;;;;;;;;;;;;;;;19.51;63.38;96522.16;5096863;28;20334;-77
2021/08/19 10:46:05;;;;;;;;;;;;;;;19.48;64.03;96529.63;5096482;28;19962;-77
2021/08/19 10:48:41;;;;;;;;;;;;;;;19.44;64.09;96535.75;5096549;28;19963;-76
2021/08/19 10:51:10;;;;;;;;;;;;;;;19.44;64.66;96533.91;5096990;28;19992;-76
2021/08/19 10:53:36;;;;;;;;;;;;;;;19.47;65.61;96535.22;5096180;28;19969;-76
2021/08/19 10:56:02;;;;;;;;;;;;;;;19.52;65.81;96535.19;5096098;28;20390;-76
2021/08/19 10:58:29;;;;;;;;;;;;;;;19.56;63.98;96527.47;5096301;28;20023;-76
2021/08/19 11:01:17;;;;;;;;;;;;;;;19.55;63.74;96526.69;5095640;28;20464;-77
2021/08/19 11:03:47;;;;;;;;;;;;;;;19.58;63.47;96528.78;5075009;28;19957;-76
2021/08/19 11:06:17;;;;;;;;;;;;;;;19.63;63.04;96515.47;5096326;28;19958;-77
2021/08/19 11:08:45;;;;;;;;;;;;;;;19.66;63.93;96522.91;5095281;28;19957;-77
2021/08/19 11:11:13;;;;;;;;;;;;;;;19.74;64.82;96526.06;5095364;28;19967;-76
2021/08/19 11:13:39;;;;;;;;;;;;;;;19.85;64.84;96524.97;5094622;28;19962;-76
2021/08/19 11:16:07;;;;;;;;;;;;;;;19.90;62.97;96514.28;5096069;28;19959;-76
2021/08/19 11:18:35;;;;;;;;;;;;;;;19.93;61.65;96500.44;5095766;28;19954;-77
2021/08/19 11:21:03;;;;;;;;;;;;;;;20.02;62.92;96513.94;5096291;28;20429;-77
2021/08/19 11:23:36;;;;;;;;;;;;;;;20.12;61.33;96500.56;5093931;28;19964;-77
2021/08/19 11:26:05;;;;;;;;;;;;;;;20.15;60.27;96485.91;5095883;28;19955;-77
2021/08/19 11:28:41;;;;;;;;;;;;;;;20.30;62.27;96507.06;5095753;28;19958;-76
2021/08/19 11:31:14;;;;;;;;;;;;;;;20.46;61.31;96502.44;5095416;28;19970;-77
2021/08/19 11:33:41;;;;;;;;;;;;;;;20.62;61.03;96497.78;5095712;28;19954;-77
2021/08/19 11:36:08;;;;;;;;;;;;;;;20.74;57.73;96465.44;5094668;28;19958;-76
2021/08/19 11:38:34;;;;;;;;;;;;;;;20.80;59.47;96482.94;5095629;28;20333;-76
2021/08/19 11:41:10;;;;;;;;;;;;;;;20.88;58.68;96482.34;5095862;28;19958;-77
2021/08/19 11:43:37;;;;;;;;;;;;;;;20.97;58.53;96477.16;5095243;28;19978;-77
2021/08/19 11:46:07;;;;;;;;;;;;;;;20.99;58.83;96473.13;5095603;28;20395;-76
2021/08/19 11:48:34;;;;;;;;;;;;;;;21.02;57.75;96469.94;5095516;28;19959;-77
2021/08/19 11:51:01;;;;;;;;;;;;;;;21.09;59.29;96482.91;5095213;28;20441;-77
2021/08/19 11:53:28;;;;;;;;;;;;;;;21.16;58.18;96474.56;5095134;28;19968;-77
2021/08/19 11:55:54;;;;;;;;;;;;;;;21.21;57.66;96477.19;5095411;28;19963;-77
2021/08/19 11:58:25;;;;;;;;;;;;;;;21.23;59.05;96472.31;5094754;28;20301;-77
2021/08/19 12:01:05;;;;;;;;;;;;;;;21.25;56.62;96454.97;5095087;28;19961;-77
2021/08/19 12:03:32;;;;;;;;;;;;;;;21.29;57.29;96469.34;5094043;28;19965;-76
2021/08/19 12:05:58;;;;;;;;;;;;;;;21.35;56.89;96464.72;5094644;28;19966;-76
2021/08/19 12:08:25;;;;;;;;;;;;;;;21.36;56.62;96455.63;5093955;28;20470;-77
2021/08/19 12:10:51;;;;;;;;;;;;;;;21.38;54.89;96442.03;5093946;28;19981;-76
2021/08/19 12:13:17;;;;;;;;;;;;;;;21.34;55.30;96447.13;5095022;28;19959;-76
2021/08/19 12:15:43;;;;;;;;;;;;;;;21.25;55.01;96451.50;5094220;28;19959;-76
2021/08/19 12:18:09;;;;;;;;;;;;;;;21.24;55.52;96456.03;5094859;28;20434;-76
2021/08/19 12:20:37;;;;;;;;;;;;;;;21.27;55.15;96444.00;5095121;28;19972;-76
2021/08/19 12:23:16;;;;;;;;;;;;;;;21.31;55.75;96461.03;5094306;28;20342;-77
2021/08/19 12:25:41;;;;;;;;;;;;;;;21.33;54.44;96437.53;5093969;28;19965;-76
2021/08/19 12:28:09;;;;;;;;;;;;;;;21.37;56.29;96465.22;5094606;28;20047;-76
2021/08/19 12:30:35;;;;;;;;;;;;;;;21.41;54.52;96439.56;5094771;28;19977;-77
2021/08/19 12:33:03;;;;;;;;;;;;;;;21.42;54.26;96443.84;5094343;28;19960;-76
2021/08/19 12:35:28;;;;;;;;;;;;;;;21.45;55.60;96451.28;5094399;28;19958;-76
2021/08/19 12:37:59;;;;;;;;;;;;;;;21.49;53.67;96438.94;5094917;28;19959;-76
2021/08/19 12:40:29;;;;;;;;;;;;;;;21.51;54.23;96438.66;5094541;28;20427;-76
2021/08/19 12:43:05;;;;;;;;;;;;;;;21.52;53.17;96418.88;5094378;28;19969;-76
2021/08/19 12:45:31;;;;;;;;;;;;;;;21.55;53.52;96430.88;5094425;28;19957;-77
2021/08/19 12:48:04;;;;;;;;;;;;;;;21.55;53.76;96431.66;5094333;28;19966;-77